sensor_id;sensor_type;location;lat;lon;timestamp;temperature;humidity
38458;DHT22;24239;48.058;10.486;2022-08-03T00:00:13;15.80;99.90
38458;DHT22;24239;48.058;10.486;2022-08-03T00:02:41;15.80;99.90
38458;DHT22;24239;48.058;10.486;2022-08-03T00:05:07;15.80;99.90
38458;DHT22;24239;48.058;10.486;2022-08-03T00:07:33;15.80;99.90
38458;DHT22;24239;48.058;10.486;2022-08-03T00:09:59;15.80;99.90
38458;DHT22;24239;48.058;10.486;2022-08-03T00:12:25;15.70;99.90
38458;DHT22;24239;48.058;10.486;2022-08-03T00:14:51;15.70;99.90
38458;DHT22;24239;48.058;10.486;2022-08-03T00:17:16;15.70;99.90
38458;DHT22;24239;48.058;10.486;2022-08-03T00:19:42;15.70;99.90
38458;DHT22;24239;48.058;10.486;2022-08-03T00:22:08;15.60;99.90
38458;DHT22;24239;48.058;10.486;2022-08-03T00:24:34;15.50;99.90
38458;DHT22;24239;48.058;10.486;2022-08-03T00:27:00;15.50;99.90
38458;DHT22;24239;48.058;10.486;2022-08-03T00:29:26;15.50;99.90
38458;DHT22;24239;48.058;10.486;2022-08-03T00:31:52;15.50;99.90
38458;DHT22;24239;48.058;10.486;2022-08-03T00:34:18;15.40;99.90
38458;DHT22;24239;48.058;10.486;2022-08-03T00:36:44;15.40;99.90
38458;DHT22;24239;48.058;10.486;2022-08-03T00:39:09;15.40;99.90
38458;DHT22;24239;48.058;10.486;2022-08-03T00:41:35;15.40;99.90
38458;DHT22;24239;48.058;10.486;2022-08-03T00:44:01;15.40;99.90
38458;DHT22;24239;48.058;10.486;2022-08-03T00:46:26;15.40;99.90
38458;DHT22;24239;48.058;10.486;2022-08-03T00:48:52;15.40;99.90
38458;DHT22;24239;48.058;10.486;2022-08-03T00:51:19;15.30;99.90
38458;DHT22;24239;48.058;10.486;2022-08-03T00:53:46;15.30;99.90
38458;DHT22;24239;48.058;10.486;2022-08-03T00:56:13;15.30;99.90
38458;DHT22;24239;48.058;10.486;2022-08-03T00:58:39;15.30;99.90
38458;DHT22;24239;48.058;10.486;2022-08-03T01:01:05;15.20;99.90
38458;DHT22;24239;48.058;10.486;2022-08-03T01:03:31;15.20;99.90
38458;DHT22;24239;48.058;10.486;2022-08-03T01:06:03;15.20;99.90
38458;DHT22;24239;48.058;10.486;2022-08-03T01:14:14;15.10;99.90
38458;DHT22;24239;48.058;10.486;2022-08-03T01:16:51;15.10;99.90
38458;DHT22;24239;48.058;10.486;2022-08-03T01:20:22;15.10;99.90
38458;DHT22;24239;48.058;10.486;2022-08-03T01:30:42;15.00;99.90
38458;DHT22;24239;48.058;10.486;2022-08-03T01:33:21;14.90;99.90
38458;DHT22;24239;48.058;10.486;2022-08-03T01:36:04;14.90;99.90
38458;DHT22;24239;48.058;10.486;2022-08-03T01:38:34;14.90;99.90
38458;DHT22;24239;48.058;10.486;2022-08-03T01:41:07;14.90;99.90
38458;DHT22;24239;48.058;10.486;2022-08-03T01:43:34;14.80;99.90
38458;DHT22;24239;48.058;10.486;2022-08-03T01:46:02;14.70;99.90
38458;DHT22;24239;48.058;10.486;2022-08-03T01:48:29;14.70;99.90
38458;DHT22;24239;48.058;10.486;2022-08-03T01:50:56;14.70;99.90
38458;DHT22;24239;48.058;10.486;2022-08-03T01:53:23;14.70;99.90
38458;DHT22;24239;48.058;10.486;2022-08-03T01:55:53;14.60;99.90
38458;DHT22;24239;48.058;10.486;2022-08-03T01:58:21;14.70;99.90
38458;DHT22;24239;48.058;10.486;2022-08-03T02:00:50;14.60;99.90
38458;DHT22;24239;48.058;10.486;2022-08-03T02:03:18;14.60;99.90
38458;DHT22;24239;48.058;10.486;2022-08-03T02:05:46;14.60;99.90
38458;DHT22;24239;48.058;10.486;2022-08-03T02:08:15;14.60;99.90
38458;DHT22;24239;48.058;10.486;2022-08-03T02:10:43;14.50;99.90
38458;DHT22;24239;48.058;10.486;2022-08-03T02:13:11;14.50;99.90
38458;DHT22;24239;48.058;10.486;2022-08-03T02:15:40;14.50;99.90
38458;DHT22;24239;48.058;10.486;2022-08-03T02:18:08;14.50;99.90
38458;DHT22;24239;48.058;10.486;2022-08-03T02:20:34;14.50;99.90
38458;DHT22;24239;48.058;10.486;2022-08-03T02:23:03;14.50;99.90
38458;DHT22;24239;48.058;10.486;2022-08-03T02:25:32;14.50;99.90
38458;DHT22;24239;48.058;10.486;2022-08-03T02:28:07;14.50;99.90
38458;DHT22;24239;48.058;10.486;2022-08-03T02:30:37;14.40;99.90
38458;DHT22;24239;48.058;10.486;2022-08-03T02:33:10;14.40;99.90
38458;DHT22;24239;48.058;10.486;2022-08-03T02:35:38;14.30;99.90
38458;DHT22;24239;48.058;10.486;2022-08-03T02:38:07;14.30;99.90
38458;DHT22;24239;48.058;10.486;2022-08-03T02:40:35;14.30;99.90
38458;DHT22;24239;48.058;10.486;2022-08-03T02:43:06;14.30;99.90
38458;DHT22;24239;48.058;10.486;2022-08-03T02:45:34;14.20;99.90
38458;DHT22;24239;48.058;10.486;2022-08-03T02:48:03;14.20;99.90
38458;DHT22;24239;48.058;10.486;2022-08-03T02:50:30;14.20;99.90
38458;DHT22;24239;48.058;10.486;2022-08-03T02:52:58;14.20;99.90
38458;DHT22;24239;48.058;10.486;2022-08-03T02:55:26;14.20;99.90
38458;DHT22;24239;48.058;10.486;2022-08-03T02:57:53;14.10;99.90
38458;DHT22;24239;48.058;10.486;2022-08-03T03:00:20;14.10;99.90
38458;DHT22;24239;48.058;10.486;2022-08-03T03:02:46;14.10;99.90
38458;DHT22;24239;48.058;10.486;2022-08-03T03:05:12;14.00;99.90
38458;DHT22;24239;48.058;10.486;2022-08-03T03:07:39;14.00;99.90
38458;DHT22;24239;48.058;10.486;2022-08-03T03:10:06;14.00;99.90
38458;DHT22;24239;48.058;10.486;2022-08-03T03:12:35;14.00;99.90
38458;DHT22;24239;48.058;10.486;2022-08-03T03:15:02;14.00;99.90
38458;DHT22;24239;48.058;10.486;2022-08-03T03:17:29;14.00;99.90
38458;DHT22;24239;48.058;10.486;2022-08-03T03:19:55;14.00;99.90
38458;DHT22;24239;48.058;10.486;2022-08-03T03:22:23;13.90;99.90
38458;DHT22;24239;48.058;10.486;2022-08-03T03:24:49;14.00;99.90
38458;DHT22;24239;48.058;10.486;2022-08-03T03:27:16;13.90;99.90
38458;DHT22;24239;48.058;10.486;2022-08-03T03:29:45;13.90;99.90
38458;DHT22;24239;48.058;10.486;2022-08-03T03:32:12;13.90;99.90
38458;DHT22;24239;48.058;10.486;2022-08-03T03:34:38;13.80;99.90
38458;DHT22;24239;48.058;10.486;2022-08-03T03:37:04;13.80;99.90
38458;DHT22;24239;48.058;10.486;2022-08-03T03:39:30;13.80;99.90
38458;DHT22;24239;48.058;10.486;2022-08-03T03:41:56;13.80;99.90
38458;DHT22;24239;48.058;10.486;2022-08-03T03:44:28;13.80;99.90
38458;DHT22;24239;48.058;10.486;2022-08-03T03:46:57;13.80;99.90
38458;DHT22;24239;48.058;10.486;2022-08-03T03:49:23;13.90;99.90
38458;DHT22;24239;48.058;10.486;2022-08-03T03:51:52;13.90;99.90
38458;DHT22;24239;48.058;10.486;2022-08-03T03:54:18;13.90;99.90
38458;DHT22;24239;48.058;10.486;2022-08-03T03:56:44;13.80;99.90
38458;DHT22;24239;48.058;10.486;2022-08-03T03:59:10;13.80;99.90
38458;DHT22;24239;48.058;10.486;2022-08-03T04:01:37;13.70;99.90
38458;DHT22;24239;48.058;10.486;2022-08-03T04:04:03;13.80;99.90
38458;DHT22;24239;48.058;10.486;2022-08-03T04:06:49;13.80;99.90
38458;DHT22;24239;48.058;10.486;2022-08-03T04:09:38;13.90;99.90
38458;DHT22;24239;48.058;10.486;2022-08-03T04:12:25;13.80;99.90
38458;DHT22;24239;48.058;10.486;2022-08-03T04:14:55;13.90;99.90
38458;DHT22;24239;48.058;10.486;2022-08-03T04:17:24;13.80;99.90
38458;DHT22;24239;48.058;10.486;2022-08-03T04:19:52;13.80;99.90
38458;DHT22;24239;48.058;10.486;2022-08-03T04:22:24;13.80;99.90
38458;DHT22;24239;48.058;10.486;2022-08-03T04:24:54;14.00;99.90
38458;DHT22;24239;48.058;10.486;2022-08-03T04:27:24;14.10;99.90
38458;DHT22;24239;48.058;10.486;2022-08-03T04:29:52;14.40;99.90
38458;DHT22;24239;48.058;10.486;2022-08-03T04:32:19;14.70;99.90
38458;DHT22;24239;48.058;10.486;2022-08-03T04:34:50;14.90;99.90
38458;DHT22;24239;48.058;10.486;2022-08-03T04:39:52;15.50;99.90
38458;DHT22;24239;48.058;10.486;2022-08-03T04:42:20;16.30;99.90
38458;DHT22;24239;48.058;10.486;2022-08-03T04:44:47;17.20;99.90
38458;DHT22;24239;48.058;10.486;2022-08-03T04:47:14;17.80;99.90
38458;DHT22;24239;48.058;10.486;2022-08-03T04:49:40;18.50;99.90
38458;DHT22;24239;48.058;10.486;2022-08-03T04:52:09;19.20;99.90
38458;DHT22;24239;48.058;10.486;2022-08-03T04:54:39;20.00;99.90
38458;DHT22;24239;48.058;10.486;2022-08-03T04:57:05;20.90;99.90
38458;DHT22;24239;48.058;10.486;2022-08-03T04:59:30;21.20;99.90
38458;DHT22;24239;48.058;10.486;2022-08-03T05:01:56;21.90;99.90
38458;DHT22;24239;48.058;10.486;2022-08-03T05:04:22;22.40;99.90
38458;DHT22;24239;48.058;10.486;2022-08-03T05:06:48;23.00;99.90
38458;DHT22;24239;48.058;10.486;2022-08-03T05:09:14;23.50;99.90
38458;DHT22;24239;48.058;10.486;2022-08-03T05:11:40;23.70;99.90
38458;DHT22;24239;48.058;10.486;2022-08-03T05:14:06;23.70;99.90
38458;DHT22;24239;48.058;10.486;2022-08-03T05:16:31;23.90;99.90
38458;DHT22;24239;48.058;10.486;2022-08-03T05:18:57;24.30;99.90
38458;DHT22;24239;48.058;10.486;2022-08-03T05:21:23;24.80;99.90
38458;DHT22;24239;48.058;10.486;2022-08-03T05:23:48;25.10;99.90
38458;DHT22;24239;48.058;10.486;2022-08-03T05:26:14;25.30;99.90
38458;DHT22;24239;48.058;10.486;2022-08-03T05:28:40;25.30;99.90
38458;DHT22;24239;48.058;10.486;2022-08-03T05:31:06;25.50;99.90
38458;DHT22;24239;48.058;10.486;2022-08-03T05:33:32;25.50;99.90
38458;DHT22;24239;48.058;10.486;2022-08-03T05:35:58;25.40;99.90
38458;DHT22;24239;48.058;10.486;2022-08-03T05:38:24;24.90;99.90
38458;DHT22;24239;48.058;10.486;2022-08-03T05:40:50;24.40;99.90
38458;DHT22;24239;48.058;10.486;2022-08-03T05:43:16;24.00;99.90
38458;DHT22;24239;48.058;10.486;2022-08-03T05:45:42;23.90;99.90
38458;DHT22;24239;48.058;10.486;2022-08-03T05:48:07;24.30;99.90
38458;DHT22;24239;48.058;10.486;2022-08-03T05:50:33;24.70;99.90
38458;DHT22;24239;48.058;10.486;2022-08-03T05:53:00;25.00;99.90
38458;DHT22;24239;48.058;10.486;2022-08-03T05:55:26;25.70;99.90
38458;DHT22;24239;48.058;10.486;2022-08-03T05:57:52;26.30;99.90
38458;DHT22;24239;48.058;10.486;2022-08-03T06:00:18;26.00;99.60
38458;DHT22;24239;48.058;10.486;2022-08-03T06:02:44;26.20;99.60
38458;DHT22;24239;48.058;10.486;2022-08-03T06:05:10;26.20;99.50
38458;DHT22;24239;48.058;10.486;2022-08-03T06:07:36;26.50;98.90
38458;DHT22;24239;48.058;10.486;2022-08-03T06:10:03;26.20;98.80
38458;DHT22;24239;48.058;10.486;2022-08-03T06:12:29;25.70;99.30
38458;DHT22;24239;48.058;10.486;2022-08-03T06:14:56;25.60;99.60
38458;DHT22;24239;48.058;10.486;2022-08-03T06:17:22;25.60;99.90
38458;DHT22;24239;48.058;10.486;2022-08-03T06:19:51;25.40;99.90
38458;DHT22;24239;48.058;10.486;2022-08-03T06:22:17;25.00;99.90
38458;DHT22;24239;48.058;10.486;2022-08-03T06:24:43;24.30;99.90
38458;DHT22;24239;48.058;10.486;2022-08-03T06:27:09;23.40;99.90
38458;DHT22;24239;48.058;10.486;2022-08-03T06:29:37;23.00;99.90
38458;DHT22;24239;48.058;10.486;2022-08-03T06:32:05;22.50;99.90
38458;DHT22;24239;48.058;10.486;2022-08-03T06:34:31;22.50;99.90
38458;DHT22;24239;48.058;10.486;2022-08-03T06:36:57;22.10;99.90
38458;DHT22;24239;48.058;10.486;2022-08-03T06:39:23;22.10;99.90
38458;DHT22;24239;48.058;10.486;2022-08-03T06:41:49;22.10;99.90
38458;DHT22;24239;48.058;10.486;2022-08-03T06:44:15;22.10;99.90
38458;DHT22;24239;48.058;10.486;2022-08-03T06:46:40;22.00;99.90
38458;DHT22;24239;48.058;10.486;2022-08-03T06:49:07;21.90;99.90
38458;DHT22;24239;48.058;10.486;2022-08-03T06:51:33;21.90;99.90
38458;DHT22;24239;48.058;10.486;2022-08-03T06:53:59;21.80;99.90
38458;DHT22;24239;48.058;10.486;2022-08-03T06:56:25;21.80;99.90
38458;DHT22;24239;48.058;10.486;2022-08-03T06:58:51;21.70;99.90
38458;DHT22;24239;48.058;10.486;2022-08-03T07:01:17;21.70;99.90
38458;DHT22;24239;48.058;10.486;2022-08-03T07:03:42;21.70;99.90
38458;DHT22;24239;48.058;10.486;2022-08-03T07:06:08;21.60;99.90
38458;DHT22;24239;48.058;10.486;2022-08-03T07:08:34;21.70;99.90
38458;DHT22;24239;48.058;10.486;2022-08-03T07:11:00;21.70;99.90
38458;DHT22;24239;48.058;10.486;2022-08-03T07:13:26;21.80;99.90
38458;DHT22;24239;48.058;10.486;2022-08-03T07:15:52;21.80;99.90
38458;DHT22;24239;48.058;10.486;2022-08-03T07:18:18;21.80;99.90
38458;DHT22;24239;48.058;10.486;2022-08-03T07:20:43;21.80;99.90
38458;DHT22;24239;48.058;10.486;2022-08-03T07:23:09;21.90;99.90
38458;DHT22;24239;48.058;10.486;2022-08-03T07:25:35;21.90;99.90
38458;DHT22;24239;48.058;10.486;2022-08-03T07:28:01;21.90;99.90
38458;DHT22;24239;48.058;10.486;2022-08-03T07:30:27;22.00;99.90
38458;DHT22;24239;48.058;10.486;2022-08-03T07:32:53;22.10;99.90
38458;DHT22;24239;48.058;10.486;2022-08-03T07:35:19;22.20;99.90
38458;DHT22;24239;48.058;10.486;2022-08-03T07:37:44;22.10;99.90
38458;DHT22;24239;48.058;10.486;2022-08-03T07:40:10;22.20;99.90
38458;DHT22;24239;48.058;10.486;2022-08-03T07:42:36;22.20;99.90
38458;DHT22;24239;48.058;10.486;2022-08-03T07:45:02;22.30;99.90
38458;DHT22;24239;48.058;10.486;2022-08-03T07:47:30;22.40;99.90
38458;DHT22;24239;48.058;10.486;2022-08-03T07:49:56;22.60;99.90
38458;DHT22;24239;48.058;10.486;2022-08-03T07:52:22;22.80;99.90
38458;DHT22;24239;48.058;10.486;2022-08-03T07:55:07;22.90;99.90
38458;DHT22;24239;48.058;10.486;2022-08-03T07:57:33;23.00;99.90
38458;DHT22;24239;48.058;10.486;2022-08-03T07:59:59;23.10;99.90
38458;DHT22;24239;48.058;10.486;2022-08-03T08:02:25;23.20;99.90
38458;DHT22;24239;48.058;10.486;2022-08-03T08:04:51;23.20;99.90
38458;DHT22;24239;48.058;10.486;2022-08-03T08:07:17;23.30;99.90
38458;DHT22;24239;48.058;10.486;2022-08-03T08:09:43;23.40;99.90
38458;DHT22;24239;48.058;10.486;2022-08-03T08:12:08;23.30;99.90
38458;DHT22;24239;48.058;10.486;2022-08-03T08:14:37;23.30;99.90
38458;DHT22;24239;48.058;10.486;2022-08-03T08:17:03;23.20;99.90
38458;DHT22;24239;48.058;10.486;2022-08-03T08:19:29;23.30;99.90
38458;DHT22;24239;48.058;10.486;2022-08-03T08:21:55;23.40;99.90
38458;DHT22;24239;48.058;10.486;2022-08-03T08:24:20;23.40;99.90
38458;DHT22;24239;48.058;10.486;2022-08-03T08:26:46;23.40;99.90
38458;DHT22;24239;48.058;10.486;2022-08-03T08:29:12;23.50;99.90
38458;DHT22;24239;48.058;10.486;2022-08-03T08:31:38;23.60;99.90
38458;DHT22;24239;48.058;10.486;2022-08-03T08:34:03;23.60;99.90
38458;DHT22;24239;48.058;10.486;2022-08-03T08:36:32;23.70;99.90
38458;DHT22;24239;48.058;10.486;2022-08-03T08:38:58;23.80;99.90
38458;DHT22;24239;48.058;10.486;2022-08-03T08:41:24;23.80;99.90
38458;DHT22;24239;48.058;10.486;2022-08-03T08:43:49;23.80;99.90
38458;DHT22;24239;48.058;10.486;2022-08-03T08:46:17;24.00;99.90
38458;DHT22;24239;48.058;10.486;2022-08-03T08:48:45;24.10;99.90
38458;DHT22;24239;48.058;10.486;2022-08-03T08:51:13;24.30;99.90
38458;DHT22;24239;48.058;10.486;2022-08-03T08:53:43;24.30;99.90
38458;DHT22;24239;48.058;10.486;2022-08-03T08:56:13;24.30;99.90
38458;DHT22;24239;48.058;10.486;2022-08-03T08:58:48;24.50;99.90
38458;DHT22;24239;48.058;10.486;2022-08-03T09:01:17;24.50;99.90
38458;DHT22;24239;48.058;10.486;2022-08-03T09:03:44;24.50;99.90
38458;DHT22;24239;48.058;10.486;2022-08-03T09:06:10;24.50;99.90
38458;DHT22;24239;48.058;10.486;2022-08-03T09:08:36;24.50;99.90
38458;DHT22;24239;48.058;10.486;2022-08-03T09:11:02;24.70;99.90
38458;DHT22;24239;48.058;10.486;2022-08-03T09:13:28;24.70;99.90
38458;DHT22;24239;48.058;10.486;2022-08-03T09:16:16;24.90;99.90
38458;DHT22;24239;48.058;10.486;2022-08-03T09:18:44;25.00;99.60
38458;DHT22;24239;48.058;10.486;2022-08-03T09:21:26;25.00;99.90
38458;DHT22;24239;48.058;10.486;2022-08-03T09:23:55;25.00;99.90
38458;DHT22;24239;48.058;10.486;2022-08-03T09:26:23;24.90;99.80
38458;DHT22;24239;48.058;10.486;2022-08-03T09:29:09;24.90;99.90
38458;DHT22;24239;48.058;10.486;2022-08-03T09:34:05;25.30;99.90
38458;DHT22;24239;48.058;10.486;2022-08-03T09:36:47;25.30;99.50
38458;DHT22;24239;48.058;10.486;2022-08-03T09:41:44;25.40;99.40
38458;DHT22;24239;48.058;10.486;2022-08-03T09:44:10;25.40;99.10
38458;DHT22;24239;48.058;10.486;2022-08-03T09:46:47;25.40;99.60
38458;DHT22;24239;48.058;10.486;2022-08-03T09:49:13;25.50;98.30
38458;DHT22;24239;48.058;10.486;2022-08-03T09:51:40;25.50;99.00
38458;DHT22;24239;48.058;10.486;2022-08-03T09:54:06;25.60;99.70
38458;DHT22;24239;48.058;10.486;2022-08-03T09:59:07;25.50;98.40
38458;DHT22;24239;48.058;10.486;2022-08-03T10:01:34;25.60;98.60
38458;DHT22;24239;48.058;10.486;2022-08-03T10:04:00;25.70;98.50
38458;DHT22;24239;48.058;10.486;2022-08-03T10:06:25;25.80;98.70
38458;DHT22;24239;48.058;10.486;2022-08-03T10:09:05;25.80;97.70
38458;DHT22;24239;48.058;10.486;2022-08-03T10:11:32;25.90;96.50
38458;DHT22;24239;48.058;10.486;2022-08-03T10:14:04;26.00;95.40
38458;DHT22;24239;48.058;10.486;2022-08-03T10:16:33;26.10;95.90
38458;DHT22;24239;48.058;10.486;2022-08-03T10:19:00;26.10;94.60
38458;DHT22;24239;48.058;10.486;2022-08-03T10:21:31;26.10;94.90
38458;DHT22;24239;48.058;10.486;2022-08-03T10:24:00;26.10;94.80
38458;DHT22;24239;48.058;10.486;2022-08-03T10:26:29;26.10;94.80
38458;DHT22;24239;48.058;10.486;2022-08-03T10:28:56;26.20;95.80
38458;DHT22;24239;48.058;10.486;2022-08-03T10:31:23;26.30;95.70
38458;DHT22;24239;48.058;10.486;2022-08-03T10:33:51;26.20;95.30
38458;DHT22;24239;48.058;10.486;2022-08-03T10:36:22;26.20;96.80
38458;DHT22;24239;48.058;10.486;2022-08-03T10:38:50;26.10;95.50
38458;DHT22;24239;48.058;10.486;2022-08-03T10:41:22;26.30;94.60
38458;DHT22;24239;48.058;10.486;2022-08-03T10:46:18;26.50;94.00
38458;DHT22;24239;48.058;10.486;2022-08-03T10:48:46;26.50;94.00
38458;DHT22;24239;48.058;10.486;2022-08-03T10:51:13;26.60;93.90
38458;DHT22;24239;48.058;10.486;2022-08-03T10:53:40;26.60;93.50
38458;DHT22;24239;48.058;10.486;2022-08-03T10:59:17;26.50;93.00
38458;DHT22;24239;48.058;10.486;2022-08-03T11:01:54;26.50;93.80
38458;DHT22;24239;48.058;10.486;2022-08-03T11:04:21;26.50;94.00
38458;DHT22;24239;48.058;10.486;2022-08-03T11:09:45;26.60;93.90
38458;DHT22;24239;48.058;10.486;2022-08-03T11:14:54;26.60;95.90
38458;DHT22;24239;48.058;10.486;2022-08-03T11:17:21;26.50;93.30
38458;DHT22;24239;48.058;10.486;2022-08-03T11:19:49;26.60;93.60
38458;DHT22;24239;48.058;10.486;2022-08-03T11:22:16;26.70;92.30
38458;DHT22;24239;48.058;10.486;2022-08-03T11:40:51;27.20;91.00
38458;DHT22;24239;48.058;10.486;2022-08-03T11:48:39;27.20;91.90
38458;DHT22;24239;48.058;10.486;2022-08-03T11:53:44;27.50;91.10
38458;DHT22;24239;48.058;10.486;2022-08-03T11:56:12;27.60;90.60
38458;DHT22;24239;48.058;10.486;2022-08-03T11:58:45;27.60;90.30
38458;DHT22;24239;48.058;10.486;2022-08-03T12:01:13;27.60;88.60
38458;DHT22;24239;48.058;10.486;2022-08-03T12:03:41;27.60;90.10
38458;DHT22;24239;48.058;10.486;2022-08-03T12:06:12;27.60;90.70
38458;DHT22;24239;48.058;10.486;2022-08-03T12:08:40;27.70;91.20
38458;DHT22;24239;48.058;10.486;2022-08-03T12:11:07;27.70;89.70
38458;DHT22;24239;48.058;10.486;2022-08-03T12:13:47;27.70;89.20
38458;DHT22;24239;48.058;10.486;2022-08-03T12:18:44;27.80;88.90
38458;DHT22;24239;48.058;10.486;2022-08-03T12:21:11;27.80;90.10
38458;DHT22;24239;48.058;10.486;2022-08-03T12:23:37;27.80;88.40
38458;DHT22;24239;48.058;10.486;2022-08-03T12:26:05;27.90;89.10
38458;DHT22;24239;48.058;10.486;2022-08-03T12:28:32;27.90;88.40
38458;DHT22;24239;48.058;10.486;2022-08-03T12:31:06;27.90;89.50
38458;DHT22;24239;48.058;10.486;2022-08-03T12:36:25;28.00;90.50
38458;DHT22;24239;48.058;10.486;2022-08-03T12:39:02;28.00;90.00
38458;DHT22;24239;48.058;10.486;2022-08-03T12:41:33;28.00;90.00
38458;DHT22;24239;48.058;10.486;2022-08-03T12:44:01;28.10;90.00
38458;DHT22;24239;48.058;10.486;2022-08-03T12:46:33;28.10;90.30
38458;DHT22;24239;48.058;10.486;2022-08-03T12:49:09;28.20;89.60
38458;DHT22;24239;48.058;10.486;2022-08-03T12:54:08;28.20;87.70
38458;DHT22;24239;48.058;10.486;2022-08-03T12:56:34;28.30;87.70
38458;DHT22;24239;48.058;10.486;2022-08-03T12:59:22;28.30;89.90
38458;DHT22;24239;48.058;10.486;2022-08-03T13:01:46;28.40;86.60
38458;DHT22;24239;48.058;10.486;2022-08-03T13:04:12;28.40;87.40
38458;DHT22;24239;48.058;10.486;2022-08-03T13:06:37;28.40;86.00
38458;DHT22;24239;48.058;10.486;2022-08-03T13:09:05;28.40;86.70
38458;DHT22;24239;48.058;10.486;2022-08-03T13:11:31;28.40;84.10
38458;DHT22;24239;48.058;10.486;2022-08-03T13:13:57;28.40;86.20
38458;DHT22;24239;48.058;10.486;2022-08-03T13:16:23;28.30;85.10
38458;DHT22;24239;48.058;10.486;2022-08-03T13:18:50;28.30;83.40
38458;DHT22;24239;48.058;10.486;2022-08-03T13:21:17;28.30;86.50
38458;DHT22;24239;48.058;10.486;2022-08-03T13:23:43;28.40;85.80
38458;DHT22;24239;48.058;10.486;2022-08-03T13:26:09;28.50;84.20
38458;DHT22;24239;48.058;10.486;2022-08-03T13:28:35;28.60;85.60
38458;DHT22;24239;48.058;10.486;2022-08-03T13:31:02;28.70;83.70
38458;DHT22;24239;48.058;10.486;2022-08-03T13:33:28;28.70;84.00
38458;DHT22;24239;48.058;10.486;2022-08-03T13:35:54;28.70;82.90
38458;DHT22;24239;48.058;10.486;2022-08-03T13:38:20;28.80;82.30
38458;DHT22;24239;48.058;10.486;2022-08-03T13:40:45;28.70;81.80
38458;DHT22;24239;48.058;10.486;2022-08-03T13:43:11;28.70;84.10
38458;DHT22;24239;48.058;10.486;2022-08-03T13:45:37;28.80;82.10
38458;DHT22;24239;48.058;10.486;2022-08-03T13:48:04;28.80;83.50
38458;DHT22;24239;48.058;10.486;2022-08-03T13:50:30;28.70;80.90
38458;DHT22;24239;48.058;10.486;2022-08-03T13:52:56;28.70;80.70
38458;DHT22;24239;48.058;10.486;2022-08-03T13:55:23;28.70;81.40
38458;DHT22;24239;48.058;10.486;2022-08-03T13:57:49;28.70;81.20
38458;DHT22;24239;48.058;10.486;2022-08-03T14:00:15;28.70;81.10
38458;DHT22;24239;48.058;10.486;2022-08-03T14:02:42;28.70;80.60
38458;DHT22;24239;48.058;10.486;2022-08-03T14:05:08;28.70;79.60
38458;DHT22;24239;48.058;10.486;2022-08-03T14:07:34;28.70;78.40
38458;DHT22;24239;48.058;10.486;2022-08-03T14:10:00;28.80;80.20
38458;DHT22;24239;48.058;10.486;2022-08-03T14:12:26;28.90;80.70
38458;DHT22;24239;48.058;10.486;2022-08-03T14:14:52;29.00;78.90
38458;DHT22;24239;48.058;10.486;2022-08-03T14:17:18;29.00;77.20
38458;DHT22;24239;48.058;10.486;2022-08-03T14:19:44;28.90;78.20
38458;DHT22;24239;48.058;10.486;2022-08-03T14:22:10;29.00;77.90
38458;DHT22;24239;48.058;10.486;2022-08-03T14:24:36;29.10;77.90
38458;DHT22;24239;48.058;10.486;2022-08-03T14:27:02;29.10;76.90
38458;DHT22;24239;48.058;10.486;2022-08-03T14:29:27;29.20;78.20
38458;DHT22;24239;48.058;10.486;2022-08-03T14:31:53;29.10;75.90
38458;DHT22;24239;48.058;10.486;2022-08-03T14:34:19;29.10;75.30
38458;DHT22;24239;48.058;10.486;2022-08-03T14:36:44;29.10;76.00
38458;DHT22;24239;48.058;10.486;2022-08-03T14:39:12;29.00;76.50
38458;DHT22;24239;48.058;10.486;2022-08-03T14:41:38;28.90;78.40
38458;DHT22;24239;48.058;10.486;2022-08-03T14:44:04;29.00;78.70
38458;DHT22;24239;48.058;10.486;2022-08-03T14:46:30;29.00;76.30
38458;DHT22;24239;48.058;10.486;2022-08-03T14:48:57;29.10;76.70
38458;DHT22;24239;48.058;10.486;2022-08-03T14:51:23;29.00;75.50
38458;DHT22;24239;48.058;10.486;2022-08-03T14:53:49;29.10;76.80
38458;DHT22;24239;48.058;10.486;2022-08-03T14:56:15;29.10;77.10
38458;DHT22;24239;48.058;10.486;2022-08-03T14:58:41;29.10;76.20
38458;DHT22;24239;48.058;10.486;2022-08-03T15:01:07;29.20;77.00
38458;DHT22;24239;48.058;10.486;2022-08-03T15:03:32;29.30;77.80
38458;DHT22;24239;48.058;10.486;2022-08-03T15:05:58;29.30;75.30
38458;DHT22;24239;48.058;10.486;2022-08-03T15:08:25;29.30;76.70
38458;DHT22;24239;48.058;10.486;2022-08-03T15:10:52;29.30;75.90
38458;DHT22;24239;48.058;10.486;2022-08-03T15:13:18;29.30;75.70
38458;DHT22;24239;48.058;10.486;2022-08-03T15:15:44;29.40;76.20
38458;DHT22;24239;48.058;10.486;2022-08-03T15:18:10;29.40;77.80
38458;DHT22;24239;48.058;10.486;2022-08-03T15:20:36;29.60;76.10
38458;DHT22;24239;48.058;10.486;2022-08-03T15:23:02;29.60;78.00
38458;DHT22;24239;48.058;10.486;2022-08-03T15:25:28;29.60;74.70
38458;DHT22;24239;48.058;10.486;2022-08-03T15:27:54;29.70;77.80
38458;DHT22;24239;48.058;10.486;2022-08-03T15:30:19;29.70;75.30
38458;DHT22;24239;48.058;10.486;2022-08-03T15:32:45;29.70;76.20
38458;DHT22;24239;48.058;10.486;2022-08-03T15:35:11;29.80;76.50
38458;DHT22;24239;48.058;10.486;2022-08-03T15:37:40;29.80;77.90
38458;DHT22;24239;48.058;10.486;2022-08-03T15:40:06;29.90;76.00
38458;DHT22;24239;48.058;10.486;2022-08-03T15:42:32;29.90;76.30
38458;DHT22;24239;48.058;10.486;2022-08-03T15:44:58;30.00;75.70
38458;DHT22;24239;48.058;10.486;2022-08-03T15:47:24;30.00;77.60
38458;DHT22;24239;48.058;10.486;2022-08-03T15:49:50;30.20;74.20
38458;DHT22;24239;48.058;10.486;2022-08-03T15:52:16;30.20;75.10
38458;DHT22;24239;48.058;10.486;2022-08-03T15:54:42;30.30;75.90
38458;DHT22;24239;48.058;10.486;2022-08-03T15:57:07;30.40;75.70
38458;DHT22;24239;48.058;10.486;2022-08-03T15:59:33;30.50;80.30
38458;DHT22;24239;48.058;10.486;2022-08-03T16:01:59;30.50;75.60
38458;DHT22;24239;48.058;10.486;2022-08-03T16:04:27;30.60;74.30
38458;DHT22;24239;48.058;10.486;2022-08-03T16:06:53;30.60;75.10
38458;DHT22;24239;48.058;10.486;2022-08-03T16:09:22;30.70;72.30
38458;DHT22;24239;48.058;10.486;2022-08-03T16:11:48;30.70;74.90
38458;DHT22;24239;48.058;10.486;2022-08-03T16:14:13;30.80;77.10
38458;DHT22;24239;48.058;10.486;2022-08-03T16:16:39;30.90;75.10
38458;DHT22;24239;48.058;10.486;2022-08-03T16:19:05;30.90;74.80
38458;DHT22;24239;48.058;10.486;2022-08-03T16:21:32;31.00;73.10
38458;DHT22;24239;48.058;10.486;2022-08-03T16:23:58;31.10;77.30